TimeMDT,TemperatureF,Dew PointF,Humidity,Sea Level PressureIn,VisibilityMPH,Wind Direction,Wind SpeedMPH,Gust SpeedMPH,PrecipitationIn,Events,Conditions,WindDirDegrees,DateUTC
12:53 AM,64.0,57.0,78,29.85,10.0,South,3.5,-,N/A,,Clear,180,2013-08-30 06:53:00
1:53 AM,64.0,57.9,80,29.85,10.0,SW,8.1,-,N/A,,Partly Cloudy,220,2013-08-30 07:53:00
2:53 AM,63.0,57.9,84,29.87,10.0,SSW,6.9,-,N/A,,Overcast,200,2013-08-30 08:53:00
3:35 AM,62.6,57.2,82,30.35,10.0,SSW,9.2,-,N/A,,Overcast,210,2013-08-30 09:35:00
3:53 AM,63.0,57.9,84,29.93,10.0,SSW,8.1,-,N/A,,Overcast,210,2013-08-30 09:53:00
4:53 AM,62.1,57.0,84,29.92,10.0,SSW,5.8,-,N/A,,Mostly Cloudy,210,2013-08-30 10:53:00
5:15 AM,60.8,57.2,88,30.34,10.0,South,4.6,-,N/A,,Scattered Clouds,190,2013-08-30 11:15:00
5:22 AM,60.8,57.2,88,30.34,10.0,SSW,5.8,-,N/A,,Mostly Cloudy,200,2013-08-30 11:22:00
5:53 AM,62.1,57.0,84,29.91,10.0,SSW,6.9,-,N/A,,Overcast,210,2013-08-30 11:53:00
6:53 AM,61.0,57.0,87,29.91,10.0,South,5.8,-,N/A,,Mostly Cloudy,190,2013-08-30 12:53:00
7:53 AM,63.0,57.9,84,29.92,10.0,South,4.6,-,N/A,,Clear,180,2013-08-30 13:53:00
8:53 AM,64.9,57.9,78,29.92,10.0,South,5.8,-,N/A,,Mostly Cloudy,180,2013-08-30 14:53:00
9:29 AM,66.2,59.0,78,30.36,10.0,South,6.9,-,N/A,,Mostly Cloudy,170,2013-08-30 15:29:00
9:53 AM,68.0,59.0,73,29.93,10.0,SSW,5.8,-,N/A,,Mostly Cloudy,210,2013-08-30 15:53:00
10:02 AM,69.8,59.0,68,30.37,10.0,SSW,4.6,-,N/A,,Partly Cloudy,200,2013-08-30 16:02:00
10:53 AM,71.1,57.9,63,29.91,10.0,Variable,5.8,-,N/A,,Clear,0,2013-08-30 16:53:00
11:53 AM,75.9,57.0,52,29.87,10.0,Variable,5.8,-,N/A,,Clear,0,2013-08-30 17:53:00
12:53 PM,77.0,55.0,47,29.84,10.0,Variable,4.6,-,N/A,,Clear,0,2013-08-30 18:53:00
1:53 PM,80.1,55.9,43,29.80,10.0,SSW,9.2,-,N/A,,Clear,200,2013-08-30 19:53:00
2:53 PM,82.0,54.0,38,29.75,10.0,Variable,3.5,-,N/A,,Clear,0,2013-08-30 20:53:00
3:53 PM,82.9,51.1,33,29.73,10.0,ESE,13.8,18.4,N/A,Thunderstorm,Mostly Cloudy,110,2013-08-30 21:53:00
4:08 PM,82.4,51.8,35,30.25,10.0,East,15.0,-,N/A,Thunderstorm,Mostly Cloudy,80,2013-08-30 22:08:00
4:15 PM,82.4,51.8,35,30.25,10.0,East,12.7,-,N/A,,Mostly Cloudy,80,2013-08-30 22:15:00
4:53 PM,82.0,52.0,35,29.72,10.0,NE,5.8,-,N/A,,Partly Cloudy,40,2013-08-30 22:53:00
5:53 PM,80.1,55.0,42,29.75,10.0,SW,10.4,20.7,N/A,,Clear,230,2013-08-30 23:53:00
6:53 PM,79.0,55.0,44,29.76,10.0,WSW,11.5,-,N/A,,Clear,240,2013-08-31 00:53:00
7:53 PM,75.9,54.0,46,29.77,10.0,SW,11.5,-,N/A,,Clear,230,2013-08-31 01:53:00
8:53 PM,73.0,55.9,55,29.81,10.0,SW,9.2,-,N/A,,Clear,230,2013-08-31 02:53:00
9:53 PM,70.0,55.0,59,29.83,10.0,WSW,8.1,-,N/A,,Clear,240,2013-08-31 03:53:00
10:53 PM,66.9,55.9,68,29.83,10.0,SW,6.9,-,N/A,,Clear,230,2013-08-31 04:53:00
11:53 PM,64.9,55.9,73,29.81,10.0,SSW,6.9,-,N/A,,Clear,200,2013-08-31 05:53:00